Bowthorpe, United Kingdom
Current Conditions -  °F | °C
As of 7:50 PM on Monday 22 Dec 2014 (Local Time) from EGSH Reporting Station
Broken Clouds Broken Clouds  
Wind Chill: 54°   Ceiling: 2800
Heat Index: 54°   Visibility: 6mi
Dew Point: 46°   Wind: 24mph
Humidity: 77%   Direction: 240°WSW
Pressure: 29.91"   Gusts: 36mph
Location:  52.64°N, 1.22°E
Report Text: EGSH 221950Z 24021G31KT 9999 BKN028 12/08 Q1013 NOSIG
Loading
Personal Weather Stations






























Interactive Weather Map New forecast layout! Learn more

10-Day Weather Forecast

Advertisements
Track Severe Weather on mobile